createdAt,value
2023-03-01T00:01:21.264Z,22.33
2023-03-01T00:03:48.519Z,18.95
2023-03-01T00:06:15.911Z,21.30
2023-03-01T00:08:42.765Z,18.90
2023-03-01T00:11:14.979Z,20.08
2023-03-01T00:13:42.581Z,20.77
2023-03-01T00:16:12.580Z,23.75
2023-03-01T00:18:39.854Z,20.15
2023-03-01T00:21:06.607Z,20.45
2023-03-01T00:23:35.828Z,22.33
2023-03-01T00:26:02.999Z,24.10
2023-03-01T00:28:29.682Z,21.35
2023-03-01T00:30:56.486Z,17.88
2023-03-01T00:33:23.302Z,20.30
2023-03-01T00:35:50.123Z,21.52
2023-03-01T00:38:16.872Z,19.92
2023-03-01T00:40:43.592Z,20.00
2023-03-01T00:43:11.145Z,19.55
2023-03-01T00:45:37.912Z,21.50
2023-03-01T00:48:04.983Z,20.30
2023-03-01T00:50:32.400Z,21.33
2023-03-01T00:52:59.213Z,25.42
2023-03-01T00:55:26.840Z,22.77
2023-03-01T00:57:53.638Z,22.50
2023-03-01T01:00:21.324Z,20.35
2023-03-01T01:02:49.293Z,23.92
2023-03-01T01:05:21.880Z,20.92
2023-03-01T01:07:49.257Z,20.30
2023-03-01T01:10:17.980Z,23.05
2023-03-01T01:12:47.946Z,19.90
2023-03-01T01:15:17.462Z,22.63
2023-03-01T01:17:44.396Z,20.58
2023-03-01T01:20:11.863Z,20.30
2023-03-01T01:22:38.673Z,21.00
2023-03-01T01:25:05.793Z,22.50
2023-03-01T01:27:32.556Z,22.50
2023-03-01T01:29:59.297Z,25.25
2023-03-01T01:32:27.190Z,22.33
2023-03-01T01:34:54.119Z,19.58
2023-03-01T01:37:21.160Z,26.15
2023-03-01T01:39:47.951Z,21.23
2023-03-01T01:42:17.468Z,21.33
2023-03-01T01:44:47.936Z,22.85
2023-03-01T01:47:20.460Z,22.55
2023-03-01T01:49:53.607Z,22.52
2023-03-01T01:52:30.161Z,24.23
2023-03-01T01:55:15.784Z,23.80
2023-03-01T01:58:04.099Z,23.13
2023-03-01T02:00:31.283Z,22.00
2023-03-01T02:03:04.191Z,21.33
2023-03-01T02:05:54.804Z,21.55
2023-03-01T02:08:23.650Z,25.80
2023-03-01T02:10:51.228Z,27.80
2023-03-01T02:13:17.964Z,23.85
2023-03-01T02:15:45.572Z,26.42
2023-03-01T02:18:17.374Z,25.58
2023-03-01T02:20:57.152Z,24.87
2023-03-01T02:23:24.356Z,24.40
2023-03-01T02:25:58.461Z,23.23
2023-03-01T02:28:35.960Z,24.52
2023-03-01T02:31:24.532Z,23.17
2023-03-01T02:33:52.682Z,23.00
2023-03-01T02:36:31.435Z,24.23
2023-03-01T02:39:01.045Z,22.33
2023-03-01T02:41:31.744Z,21.83
2023-03-01T02:43:59.080Z,23.55
2023-03-01T02:46:27.056Z,23.58
2023-03-01T02:48:57.365Z,20.80
2023-03-01T02:51:56.084Z,23.95
2023-03-01T02:54:40.133Z,21.90
2023-03-01T02:57:08.348Z,23.55
2023-03-01T02:59:40.312Z,21.80
2023-03-01T03:02:21.717Z,22.85
2023-03-01T03:04:48.631Z,22.48
2023-03-01T03:07:15.766Z,24.23
2023-03-01T03:09:42.591Z,21.98
2023-03-01T03:12:09.346Z,22.88
2023-03-01T03:14:36.165Z,22.15
2023-03-01T03:17:07.531Z,26.13
2023-03-01T03:19:34.311Z,23.58
2023-03-01T03:22:01.141Z,24.50
2023-03-01T03:24:38.783Z,25.60
2023-03-01T03:27:06.793Z,23.10
2023-03-01T03:29:34.228Z,24.35
2023-03-01T03:32:01.092Z,22.05
2023-03-01T03:34:27.843Z,24.80
2023-03-01T03:37:00.344Z,23.95
2023-03-01T03:39:28.122Z,23.15
2023-03-01T03:41:55.247Z,24.65
2023-03-01T03:44:22.632Z,24.67
2023-03-01T03:46:49.330Z,23.85
2023-03-01T03:49:16.112Z,24.60
2023-03-01T03:51:42.851Z,26.58
2023-03-01T03:54:09.597Z,22.48
2023-03-01T03:56:36.359Z,23.63
2023-03-01T03:59:03.074Z,23.15
2023-03-01T04:01:29.892Z,24.20
2023-03-01T04:03:56.659Z,23.30
2023-03-01T04:06:23.457Z,24.45
2023-03-01T04:08:52.002Z,22.73
2023-03-01T04:11:28.229Z,23.45
2023-03-01T04:13:57.609Z,25.63
2023-03-01T04:16:24.926Z,22.77
2023-03-01T04:18:53.348Z,27.48
2023-03-01T04:21:21.316Z,22.48
2023-03-01T04:23:48.105Z,26.35
2023-03-01T04:26:14.924Z,28.25
2023-03-01T04:28:46.052Z,26.63
2023-03-01T04:31:18.271Z,26.85
2023-03-01T04:33:45.202Z,25.05
2023-03-01T04:36:13.314Z,24.48
2023-03-01T04:38:41.432Z,23.35
2023-03-01T04:41:11.878Z,25.42
2023-03-01T04:43:39.136Z,27.73
2023-03-01T04:46:10.174Z,24.23
2023-03-01T04:48:38.397Z,26.42
2023-03-01T04:51:06.562Z,26.85
2023-03-01T04:53:33.852Z,27.90
2023-03-01T04:56:00.772Z,24.88
2023-03-01T04:58:28.689Z,21.42
2023-03-01T05:00:56.021Z,28.45
2023-03-01T05:03:23.354Z,24.55
2023-03-01T05:05:52.548Z,24.85
2023-03-01T05:08:20.036Z,29.10
2023-03-01T05:10:51.634Z,24.30
2023-03-01T05:13:22.761Z,27.23
2023-03-01T05:15:57.849Z,22.35
2023-03-01T05:18:29.152Z,27.83
2023-03-01T05:20:59.072Z,24.13
2023-03-01T05:23:26.262Z,25.95
2023-03-01T05:25:53.425Z,27.40
2023-03-01T05:28:21.370Z,25.75
2023-03-01T05:30:48.479Z,23.13
2023-03-01T05:33:15.305Z,25.85
2023-03-01T05:35:43.792Z,26.80
2023-03-01T05:38:14.931Z,23.35
2023-03-01T05:40:42.899Z,26.48
2023-03-01T05:43:09.687Z,27.70
2023-03-01T05:45:38.363Z,31.55
2023-03-01T05:48:06.407Z,25.30
2023-03-01T05:50:38.808Z,23.90
2023-03-01T05:53:10.796Z,24.50
2023-03-01T05:55:37.830Z,24.80
2023-03-01T05:58:07.510Z,27.55
2023-03-01T06:00:34.739Z,26.95
2023-03-01T06:03:01.857Z,26.75
2023-03-01T06:05:29.804Z,27.42
2023-03-01T06:07:59.661Z,31.38
2023-03-01T06:10:26.510Z,26.85
2023-03-01T06:12:53.313Z,26.75
2023-03-01T06:15:20.336Z,26.05
2023-03-01T06:17:47.550Z,27.02
2023-03-01T06:20:22.529Z,24.60
2023-03-01T06:22:50.278Z,25.27
2023-03-01T06:25:19.623Z,26.17
2023-03-01T06:27:46.984Z,27.08
2023-03-01T06:30:16.460Z,25.52
2023-03-01T06:32:43.450Z,27.02
2023-03-01T06:35:15.446Z,26.27
2023-03-01T06:37:42.643Z,26.05
2023-03-01T06:40:12.728Z,27.80
2023-03-01T06:42:41.032Z,29.33
2023-03-01T06:45:09.239Z,30.52
2023-03-01T06:47:36.328Z,26.85
2023-03-01T06:50:04.393Z,29.52
2023-03-01T06:52:31.491Z,27.90
2023-03-01T06:54:58.252Z,27.98
2023-03-01T06:57:25.181Z,25.00
2023-03-01T06:59:51.904Z,24.58
2023-03-01T07:02:19.322Z,30.60
2023-03-01T07:04:46.339Z,29.85
2023-03-01T07:07:13.106Z,28.75
2023-03-01T07:09:39.843Z,29.33
2023-03-01T07:12:06.929Z,26.98
2023-03-01T07:14:33.693Z,27.65
2023-03-01T07:17:00.423Z,24.27
2023-03-01T07:19:27.389Z,27.00
2023-03-01T07:21:54.924Z,24.67
2023-03-01T07:24:21.644Z,27.15
2023-03-01T07:26:52.575Z,26.95
2023-03-01T07:29:19.343Z,26.17
2023-03-01T07:31:46.182Z,26.80
2023-03-01T07:34:13.085Z,26.42
2023-03-01T07:36:40.610Z,30.08
2023-03-01T07:39:07.532Z,24.63
2023-03-01T07:41:34.300Z,31.08
2023-03-01T07:44:01.274Z,27.67
2023-03-01T07:46:28.069Z,28.30
2023-03-01T07:48:54.884Z,28.17
2023-03-01T07:51:22.268Z,27.98
2023-03-01T07:53:49.539Z,27.15
2023-03-01T07:56:18.700Z,26.45
2023-03-01T07:58:46.264Z,31.50
2023-03-01T08:01:19.003Z,31.73
2023-03-01T08:06:15.160Z,26.25
2023-03-01T08:08:42.374Z,28.45
2023-03-01T08:11:12.256Z,25.50
2023-03-01T08:13:39.198Z,27.50
2023-03-01T08:16:09.534Z,29.10
2023-03-01T08:18:36.507Z,26.30
2023-03-01T08:21:08.958Z,27.63
2023-03-01T08:23:35.804Z,26.00
2023-03-01T08:26:15.761Z,25.88
2023-03-01T08:28:42.979Z,29.27
2023-03-01T08:31:28.414Z,29.92
2023-03-01T08:34:00.900Z,26.00
2023-03-01T08:36:30.676Z,29.15
2023-03-01T08:38:58.137Z,31.10
2023-03-01T08:41:25.193Z,28.33
2023-03-01T08:43:53.443Z,30.05
2023-03-01T08:46:20.193Z,28.55
2023-03-01T08:48:46.983Z,30.30
2023-03-01T08:51:18.105Z,31.17
2023-03-01T08:53:45.907Z,25.13
2023-03-01T08:56:13.442Z,26.67
2023-03-01T08:58:43.253Z,28.48
2023-03-01T09:01:12.056Z,29.08
2023-03-01T09:03:39.270Z,26.10
2023-03-01T09:06:08.476Z,28.73
2023-03-01T09:08:41.763Z,22.88
2023-03-01T09:11:14.344Z,27.30
2023-03-01T09:13:43.872Z,33.15
2023-03-01T09:16:14.227Z,29.35
2023-03-01T09:18:41.676Z,29.00
2023-03-01T09:21:11.197Z,26.15
2023-03-01T09:23:43.389Z,28.42
2023-03-01T09:26:13.166Z,26.67
2023-03-01T09:28:41.940Z,30.77
2023-03-01T09:31:08.824Z,27.67
2023-03-01T09:33:35.762Z,28.50
2023-03-01T09:36:05.643Z,29.25
2023-03-01T09:38:32.735Z,25.77
2023-03-01T09:41:01.017Z,30.00
2023-03-01T09:46:12.588Z,27.95
2023-03-01T09:48:45.284Z,26.45
2023-03-01T09:51:20.559Z,26.52
2023-03-01T09:53:47.411Z,29.35
2023-03-01T09:56:21.968Z,27.83
2023-03-01T09:59:00.337Z,27.13
2023-03-01T10:01:50.095Z,36.95
2023-03-01T10:04:37.412Z,30.58
2023-03-01T10:07:11.517Z,30.27
2023-03-01T10:09:41.382Z,26.45
2023-03-01T10:12:33.111Z,29.42
2023-03-01T10:15:20.295Z,24.92
2023-03-01T10:17:57.306Z,23.98
2023-03-01T10:20:27.379Z,31.75
2023-03-01T10:22:56.174Z,25.73
2023-03-01T10:25:56.160Z,26.88
2023-03-01T10:28:37.081Z,27.63
2023-03-01T10:31:04.414Z,26.30
2023-03-01T10:33:36.378Z,29.45
2023-03-01T10:36:03.914Z,26.67
2023-03-01T10:38:32.895Z,26.58
2023-03-01T10:41:07.662Z,26.65
2023-03-01T10:43:48.974Z,27.48
2023-03-01T10:46:37.230Z,27.38
2023-03-01T10:49:22.188Z,31.92
2023-03-01T10:51:52.596Z,29.23
2023-03-01T10:54:31.699Z,25.98
2023-03-01T10:57:01.168Z,27.88
2023-03-01T10:59:27.944Z,26.08
2023-03-01T11:02:25.518Z,25.55
2023-03-01T11:05:16.933Z,27.85
2023-03-01T11:08:04.304Z,24.58
2023-03-01T11:10:37.257Z,27.20
2023-03-01T11:16:07.822Z,28.20
2023-03-01T11:18:47.054Z,27.02
2023-03-01T11:21:16.933Z,25.95
2023-03-01T11:23:46.450Z,24.33
2023-03-01T11:26:16.355Z,25.98
2023-03-01T11:28:45.611Z,23.48
2023-03-01T11:31:13.612Z,25.10
2023-03-01T11:33:59.535Z,24.38
2023-03-01T11:36:55.679Z,23.33
2023-03-01T11:40:02.021Z,25.30
2023-03-01T11:42:51.120Z,23.92
2023-03-01T11:45:18.046Z,22.20
2023-03-01T11:48:21.842Z,27.13
2023-03-01T11:50:49.738Z,23.02
2023-03-01T11:54:04.472Z,24.90
2023-03-01T11:56:41.754Z,24.50
2023-03-01T11:59:26.361Z,25.40
2023-03-01T12:02:14.468Z,25.08
2023-03-01T12:04:47.465Z,23.27
2023-03-01T12:10:26.589Z,24.80
2023-03-01T12:13:19.068Z,24.77
2023-03-01T12:16:02.217Z,25.00
2023-03-01T12:21:14.619Z,23.27
2023-03-01T12:23:49.153Z,25.42
2023-03-01T12:26:39.248Z,24.50
2023-03-01T12:29:20.819Z,26.75
2023-03-01T12:32:31.038Z,23.83
2023-03-01T12:35:09.822Z,24.17
2023-03-01T12:38:09.348Z,24.60
2023-03-01T12:41:19.253Z,27.15
2023-03-01T12:44:15.190Z,25.08
2023-03-01T12:47:19.718Z,23.02
2023-03-01T12:49:52.134Z,25.67
2023-03-01T12:52:57.213Z,21.50
2023-03-01T12:55:38.301Z,23.15
2023-03-01T12:58:34.093Z,23.55
2023-03-01T13:01:15.371Z,23.20
2023-03-01T13:04:03.633Z,22.88
2023-03-01T13:06:43.866Z,20.42
2023-03-01T13:09:47.889Z,24.20
2023-03-01T13:12:44.623Z,21.80
2023-03-01T13:15:27.678Z,23.45
2023-03-01T13:17:57.044Z,20.17
2023-03-01T13:20:35.678Z,21.00
2023-03-01T13:23:28.008Z,21.08
2023-03-01T13:26:08.756Z,19.73
2023-03-01T13:28:35.665Z,25.08
2023-03-01T13:31:04.744Z,22.65
2023-03-01T13:33:31.440Z,17.25
2023-03-01T13:35:59.730Z,23.67
2023-03-01T13:38:49.357Z,19.42
2023-03-01T13:41:18.559Z,21.50
2023-03-01T13:43:48.134Z,17.58
2023-03-01T13:46:24.433Z,19.35
2023-03-01T13:48:55.751Z,20.15
2023-03-01T13:51:26.736Z,18.35
2023-03-01T13:53:54.987Z,18.85
2023-03-01T13:56:38.131Z,16.95
2023-03-01T13:59:24.073Z,19.80
2023-03-01T14:01:59.020Z,20.05
2023-03-01T14:04:36.826Z,20.35
2023-03-01T14:07:11.851Z,21.80
2023-03-01T14:09:45.257Z,19.38
2023-03-01T14:12:23.456Z,18.42
2023-03-01T14:15:10.824Z,17.63
2023-03-01T14:17:55.820Z,21.17
2023-03-01T14:20:28.690Z,20.35
2023-03-01T14:23:09.625Z,23.80
2023-03-01T14:25:39.374Z,20.92
2023-03-01T14:28:06.452Z,20.67
2023-03-01T14:30:47.715Z,22.17
2023-03-01T14:33:22.958Z,25.77
2023-03-01T14:36:04.687Z,22.77
2023-03-01T14:38:36.111Z,24.52
2023-03-01T14:41:19.551Z,22.10
2023-03-01T14:44:02.152Z,22.55
2023-03-01T14:46:39.921Z,23.00
2023-03-01T14:49:19.922Z,22.75
2023-03-01T14:52:20.731Z,22.10
2023-03-01T14:54:51.189Z,25.98
2023-03-01T14:57:22.717Z,22.42
2023-03-01T14:59:53.828Z,22.17
2023-03-01T15:02:23.986Z,22.52
2023-03-01T15:04:54.189Z,23.35
2023-03-01T15:07:21.413Z,23.73
2023-03-01T15:09:48.975Z,21.65
2023-03-01T15:12:39.172Z,24.58
2023-03-01T15:15:23.420Z,25.80
2023-03-01T15:17:56.214Z,23.42
2023-03-01T15:20:30.209Z,21.80
2023-03-01T15:22:58.748Z,27.80
2023-03-01T15:25:30.939Z,23.13
2023-03-01T15:27:59.797Z,24.00
2023-03-01T15:30:35.900Z,21.52
2023-03-01T15:33:21.470Z,24.42
2023-03-01T15:35:54.393Z,22.98
2023-03-01T15:38:27.856Z,22.48
2023-03-01T15:43:42.106Z,24.23
2023-03-01T15:46:27.133Z,24.45
2023-03-01T15:48:58.002Z,23.05
2023-03-01T15:51:31.108Z,24.58
2023-03-01T15:56:26.165Z,19.77
2023-03-01T15:58:52.929Z,25.75
2023-03-01T16:01:19.810Z,25.27
2023-03-01T16:03:46.733Z,25.55
2023-03-01T16:06:14.598Z,26.65
2023-03-01T16:08:42.672Z,24.65
2023-03-01T16:11:18.948Z,25.70
2023-03-01T16:13:46.961Z,26.45
2023-03-01T16:16:17.199Z,24.63
2023-03-01T16:18:45.727Z,25.35
2023-03-01T16:21:16.588Z,23.80
2023-03-01T16:23:44.957Z,24.67
2023-03-01T16:26:12.033Z,24.13
2023-03-01T16:28:38.768Z,23.05
2023-03-01T16:31:06.627Z,21.35
2023-03-01T16:33:34.851Z,22.40
2023-03-01T16:36:12.891Z,25.33
2023-03-01T16:38:39.897Z,21.88
2023-03-01T16:41:11.786Z,24.50
2023-03-01T16:43:38.543Z,24.42
2023-03-01T16:46:16.939Z,24.60
2023-03-01T16:48:44.149Z,22.92
2023-03-01T16:51:10.976Z,21.65
2023-03-01T16:53:38.948Z,23.40
2023-03-01T16:56:08.673Z,27.55
2023-03-01T16:58:40.043Z,25.08
2023-03-01T17:01:08.279Z,26.52
2023-03-01T17:03:35.630Z,23.40
2023-03-01T17:06:07.196Z,23.10
2023-03-01T17:08:34.319Z,26.30
2023-03-01T17:11:09.677Z,22.70
2023-03-01T17:13:38.523Z,27.08
2023-03-01T17:16:10.805Z,25.08
2023-03-01T17:18:38.652Z,23.17
2023-03-01T17:21:07.116Z,23.73
2023-03-01T17:23:36.064Z,26.65
2023-03-01T17:26:02.965Z,24.88
2023-03-01T17:28:32.542Z,21.83
2023-03-01T17:31:04.288Z,26.90
2023-03-01T17:33:31.517Z,26.38
2023-03-01T17:35:59.838Z,26.92
2023-03-01T17:38:26.905Z,27.55
2023-03-01T17:40:53.780Z,22.52
2023-03-01T17:43:22.576Z,25.77
2023-03-01T17:45:51.454Z,24.98
2023-03-01T17:48:18.633Z,27.05
2023-03-01T17:50:45.682Z,27.95
2023-03-01T17:53:13.289Z,25.88
2023-03-01T17:55:42.169Z,25.23
2023-03-01T17:58:10.707Z,30.20
2023-03-01T18:00:38.269Z,25.23
2023-03-01T18:03:07.083Z,24.80
2023-03-01T18:05:36.335Z,24.80
2023-03-01T18:08:03.273Z,25.05
2023-03-01T18:10:35.609Z,28.17
2023-03-01T18:13:03.779Z,27.10
2023-03-01T18:15:30.760Z,25.73
2023-03-01T18:17:57.649Z,27.05
2023-03-01T18:20:24.362Z,26.55
2023-03-01T18:22:52.700Z,27.40
2023-03-01T18:25:20.361Z,27.15
2023-03-01T18:27:47.150Z,26.85
2023-03-01T18:30:15.458Z,26.17
2023-03-01T18:32:42.351Z,32.97
2023-03-01T18:35:09.200Z,24.13
2023-03-01T18:37:35.931Z,25.05
2023-03-01T18:40:04.904Z,26.05
2023-03-01T18:42:31.993Z,28.35
2023-03-01T18:44:59.303Z,24.75
2023-03-01T18:47:26.028Z,27.42
2023-03-01T18:49:52.880Z,25.60
2023-03-01T18:52:19.636Z,25.45
2023-03-01T18:54:46.426Z,23.13
2023-03-01T18:57:13.166Z,23.92
2023-03-01T18:59:39.964Z,25.58
2023-03-01T19:02:07.066Z,22.73
2023-03-01T19:04:33.944Z,28.42
2023-03-01T19:07:02.207Z,29.10
2023-03-01T19:09:29.140Z,26.27
2023-03-01T19:11:58.823Z,24.52
2023-03-01T19:14:25.708Z,24.30
2023-03-01T19:16:52.472Z,24.10
2023-03-01T19:19:19.302Z,26.20
2023-03-01T19:21:56.023Z,25.60
2023-03-01T19:24:31.535Z,26.15
2023-03-01T19:26:58.542Z,26.90
2023-03-01T19:29:27.677Z,24.73
2023-03-01T19:31:54.509Z,26.55
2023-03-01T19:34:22.911Z,29.17
2023-03-01T19:36:49.967Z,30.15
2023-03-01T19:39:16.933Z,26.35
2023-03-01T19:41:44.332Z,25.05
2023-03-01T19:44:11.933Z,27.88
2023-03-01T19:46:38.932Z,24.70
2023-03-01T19:49:06.566Z,27.20
2023-03-01T19:51:36.386Z,25.58
2023-03-01T19:54:03.873Z,28.75
2023-03-01T19:56:31.489Z,26.30
2023-03-01T19:59:00.701Z,30.15
2023-03-01T20:01:29.780Z,31.15
2023-03-01T20:03:59.053Z,26.63
2023-03-01T20:06:26.121Z,27.08
2023-03-01T20:08:53.063Z,27.83
2023-03-01T20:11:20.908Z,24.33
2023-03-01T20:13:47.976Z,26.00
2023-03-01T20:16:19.841Z,27.00
2023-03-01T20:18:46.882Z,27.93
2023-03-01T20:21:23.557Z,26.95
2023-03-01T20:23:51.510Z,29.52
2023-03-01T20:26:21.039Z,26.45
2023-03-01T20:28:50.073Z,28.98
2023-03-01T20:31:19.158Z,32.20
2023-03-01T20:33:46.193Z,30.55
2023-03-01T20:36:13.174Z,29.25
2023-03-01T20:38:40.512Z,28.23
2023-03-01T20:41:10.069Z,37.42
2023-03-01T20:43:37.475Z,29.77
2023-03-01T20:46:11.238Z,28.77
2023-03-01T20:48:40.378Z,29.55
2023-03-01T20:51:09.302Z,32.97
2023-03-01T20:53:37.591Z,32.95
2023-03-01T20:56:06.860Z,27.58
2023-03-01T20:58:35.462Z,31.02
2023-03-01T21:01:04.252Z,28.40
2023-03-01T21:03:31.172Z,29.27
2023-03-01T21:05:59.009Z,33.88
2023-03-01T21:08:29.493Z,28.75
2023-03-01T21:10:57.888Z,33.33
2023-03-01T21:13:33.172Z,34.72
2023-03-01T21:16:01.094Z,29.00
2023-03-01T21:18:31.777Z,34.53
2023-03-01T21:21:00.576Z,30.63
2023-03-01T21:23:31.404Z,32.05
2023-03-01T21:26:06.892Z,31.30
2023-03-01T21:28:34.475Z,30.23
2023-03-01T21:31:10.211Z,32.03
2023-03-01T21:33:46.667Z,30.33
2023-03-01T21:36:22.035Z,27.17
2023-03-01T21:41:26.238Z,30.48
2023-03-01T21:44:04.055Z,27.17
2023-03-01T21:46:33.485Z,28.10
2023-03-01T21:49:07.444Z,32.25
2023-03-01T21:51:45.689Z,30.77
2023-03-01T21:54:14.791Z,29.98
2023-03-01T21:56:47.412Z,28.20
2023-03-01T21:59:20.396Z,32.78
2023-03-01T22:01:47.956Z,28.92
2023-03-01T22:04:15.750Z,31.67
2023-03-01T22:06:46.674Z,35.42
2023-03-01T22:09:22.492Z,36.13
2023-03-01T22:11:53.963Z,29.45
2023-03-01T22:14:21.623Z,33.33
2023-03-01T22:16:54.451Z,31.50
2023-03-01T22:21:53.616Z,31.45
2023-03-01T22:24:23.658Z,28.02
2023-03-01T22:26:51.517Z,30.80
2023-03-01T22:29:25.225Z,30.38
2023-03-01T22:31:52.886Z,31.40
2023-03-01T22:34:20.196Z,34.60
2023-03-01T22:36:47.986Z,32.20
2023-03-01T22:39:17.140Z,33.15
2023-03-01T22:41:46.129Z,28.75
2023-03-01T22:44:19.783Z,35.90
2023-03-01T22:46:47.345Z,35.33
2023-03-01T22:49:14.593Z,31.85
2023-03-01T22:51:42.941Z,35.22
2023-03-01T22:54:10.554Z,34.47
2023-03-01T22:56:38.368Z,35.03
2023-03-01T22:59:10.813Z,31.77
2023-03-01T23:01:39.337Z,33.28
2023-03-01T23:04:06.499Z,32.60
2023-03-01T23:06:33.854Z,33.33
2023-03-01T23:09:02.424Z,31.70
2023-03-01T23:11:29.513Z,34.75
2023-03-01T23:13:56.433Z,30.02
2023-03-01T23:16:26.484Z,32.70
2023-03-01T23:18:55.812Z,33.35
2023-03-01T23:21:23.146Z,31.95
2023-03-01T23:23:50.101Z,32.33
2023-03-01T23:26:18.504Z,34.17
2023-03-01T23:28:45.371Z,32.55
2023-03-01T23:31:14.142Z,32.67
2023-03-01T23:33:43.308Z,32.45
2023-03-01T23:36:28.212Z,36.85
2023-03-01T23:39:03.957Z,35.78
2023-03-01T23:41:32.855Z,31.23
2023-03-01T23:44:02.064Z,33.85
2023-03-01T23:46:32.338Z,31.40
2023-03-01T23:48:59.991Z,32.05
2023-03-01T23:51:27.173Z,31.77
2023-03-01T23:54:00.672Z,32.25
2023-03-01T23:56:35.960Z,34.25
2023-03-01T23:59:09.173Z,31.85
